sensor_id;sensor_type;location;lat;lon;timestamp;pressure;altitude;pressure_sealevel;temperature;humidity
30714;BME280;17465;47.934;33.430;2023-07-24T21:44:10;57559.20;;;-140.43;47.03
30714;BME280;17465;47.934;33.430;2023-07-24T21:46:40;57559.20;;;-140.43;47.03
30714;BME280;17465;47.934;33.430;2023-07-24T22:02:12;55963.46;;;-140.43;47.14
30714;BME280;17465;47.934;33.430;2023-07-24T22:04:43;57543.31;;;-140.43;47.01
30714;BME280;17465;47.934;33.430;2023-07-24T22:07:13;57557.08;;;-140.43;47.12
30714;BME280;17465;47.934;33.430;2023-07-24T22:09:44;57557.08;;;-140.43;47.12
30714;BME280;17465;47.934;33.430;2023-07-24T22:12:14;57522.12;;;-140.43;47.45
30714;BME280;17465;47.934;33.430;2023-07-24T22:14:44;57560.25;;;-140.43;47.73
30714;BME280;17465;47.934;33.430;2023-07-24T22:17:15;57543.31;;;-140.43;47.97
30714;BME280;17465;47.934;33.430;2023-07-24T22:19:45;57542.25;;;-140.43;49.42
30714;BME280;17465;47.934;33.430;2023-07-24T22:22:16;57510.48;;;-140.43;49.42
30714;BME280;17465;47.934;33.430;2023-07-24T22:24:46;57549.66;;;-140.43;50.34
30714;BME280;17465;47.934;33.430;2023-07-24T22:27:16;57517.89;;;-140.43;50.79
30714;BME280;17465;47.934;33.430;2023-07-24T22:29:47;57534.84;;;-140.43;50.44
30714;BME280;17465;47.934;33.430;2023-07-24T22:32:17;57524.25;;;-140.43;53.65
30714;BME280;17465;47.934;33.430;2023-07-24T22:34:51;57524.25;;;-140.43;53.65
30714;BME280;17465;47.934;33.430;2023-07-24T22:37:22;57507.30;;;-140.43;57.84
30714;BME280;17465;47.934;33.430;2023-07-24T22:39:52;57504.12;;;-140.43;58.37
30714;BME280;17465;47.934;33.430;2023-07-24T22:42:23;57520.01;;;-140.43;59.04
30714;BME280;17465;47.934;33.430;2023-07-24T22:44:53;57504.12;;;-140.43;61.75
30714;BME280;17465;47.934;33.430;2023-07-24T22:47:24;57503.06;;;-140.43;63.04
30714;BME280;17465;47.934;33.430;2023-07-24T22:49:55;57463.87;;;-140.43;61.46
30714;BME280;17465;47.934;33.430;2023-07-24T22:52:25;57482.94;;;-140.43;66.80
30714;BME280;17465;47.934;33.430;2023-07-24T22:54:55;57473.41;;;-140.43;67.38
30714;BME280;17465;47.934;33.430;2023-07-24T22:57:27;57458.58;;;-140.43;66.71
30714;BME280;17465;47.934;33.430;2023-07-24T22:59:57;57451.16;;;-140.43;67.83
30714;BME280;17465;47.934;33.430;2023-07-24T23:02:28;57451.16;;;-140.43;67.83
30714;BME280;17465;47.934;33.430;2023-07-24T23:04:58;57495.65;;;-140.43;64.64
30714;BME280;17465;47.934;33.430;2023-07-24T23:07:29;57475.52;;;-140.43;59.75
30714;BME280;17465;47.934;33.430;2023-07-24T23:09:59;57482.94;;;-140.43;64.88
30714;BME280;17465;47.934;33.430;2023-07-24T23:12:29;57482.94;;;-140.43;64.88
30714;BME280;17465;47.934;33.430;2023-07-24T23:15:00;57477.64;;;-140.43;66.00
30714;BME280;17465;47.934;33.430;2023-07-24T23:17:30;57477.64;;;-140.43;66.00
30714;BME280;17465;47.934;33.430;2023-07-24T23:20:01;57464.93;;;-140.43;69.67
30714;BME280;17465;47.934;33.430;2023-07-24T23:22:31;57456.46;;;-140.43;62.71
30714;BME280;17465;47.934;33.430;2023-07-24T23:25:02;57456.46;;;-140.43;62.71
30714;BME280;17465;47.934;33.430;2023-07-24T23:27:32;57473.41;;;-140.43;62.45
30714;BME280;17465;47.934;33.430;2023-07-24T23:30:03;57473.41;;;-140.43;63.65
30714;BME280;17465;47.934;33.430;2023-07-24T23:32:34;57443.75;;;-140.43;67.15
30714;BME280;17465;47.934;33.430;2023-07-24T23:35:04;57465.99;;;-140.43;66.92
30714;BME280;17465;47.934;33.430;2023-07-24T23:37:35;57458.58;;;-140.43;69.71
30714;BME280;17465;47.934;33.430;2023-07-24T23:40:07;57474.46;;;-140.43;68.84
30714;BME280;17465;47.934;33.430;2023-07-24T23:42:38;57474.46;;;-140.43;68.84
30714;BME280;17465;47.934;33.430;2023-07-24T23:45:09;57444.81;;;-140.43;70.18
30714;BME280;17465;47.934;33.430;2023-07-24T23:47:40;57450.11;;;-140.43;70.72
30714;BME280;17465;47.934;33.430;2023-07-24T23:50:10;57455.40;;;-140.43;72.21
30714;BME280;17465;47.934;33.430;2023-07-24T23:55:20;57424.69;;;-140.43;72.05
30714;BME280;17465;47.934;33.430;2023-07-24T23:57:51;57485.05;;;-140.43;72.82
